Time;durP1;ratioP1;P1;durP2;ratioP2;P2;SDS_P1;SDS_P2;PMS_P1;PMS_P2;Temp;Humidity;BMP_temperature;BMP_pressure;BME280_temperature;BME280_humidity;BME280_pressure;Samples;Min_cycle;Max_cycle;Signal;HPM_P1;HPM_P2
2023/01/26 00:01:11;;;;;;;116.37;39.90;;;0.50;99.90;;;;;;4916919;29;20044;-69
2023/01/26 00:03:37;;;;;;;114.57;40.90;;;0.40;99.90;;;;;;4890931;29;20036;-69
2023/01/26 00:06:09;;;;;;;138.87;47.40;;;0.50;99.90;;;;;;4909227;29;20032;-68
2023/01/26 00:08:37;;;;;;;117.50;42.33;;;0.40;99.90;;;;;;4897278;29;20032;-69
2023/01/26 00:11:04;;;;;;;98.70;36.67;;;0.40;99.90;;;;;;4913185;29;20067;-69
2023/01/26 00:13:31;;;;;;;98.27;33.77;;;0.40;99.90;;;;;;4890230;29;20047;-71
2023/01/26 00:15:58;;;;;;;121.63;42.63;;;0.50;99.90;;;;;;4900728;29;20067;-69
2023/01/26 00:18:24;;;;;;;100.33;36.83;;;0.40;99.90;;;;;;4909711;29;20034;-69
2023/01/26 00:21:01;;;;;;;95.97;34.47;;;0.40;99.90;;;;;;4917983;29;20036;-68
2023/01/26 00:23:30;;;;;;;115.07;41.90;;;0.40;99.90;;;;;;4892234;29;20032;-69
2023/01/26 00:25:56;;;;;;;121.53;40.67;;;0.40;99.90;;;;;;4898314;29;20048;-68
2023/01/26 00:28:23;;;;;;;119.63;43.27;;;0.40;99.90;;;;;;4898592;29;20035;-69
2023/01/26 00:30:49;;;;;;;121.10;42.17;;;0.40;99.90;;;;;;4892727;29;20420;-69
2023/01/26 00:33:16;;;;;;;105.90;38.17;;;0.40;99.90;;;;;;4893995;29;20048;-71
2023/01/26 00:35:43;;;;;;;93.83;36.73;;;0.40;99.90;;;;;;4880839;29;20503;-69
2023/01/26 00:38:12;;;;;;;86.70;32.53;;;0.40;99.90;;;;;;4910781;29;20151;-69
2023/01/26 00:40:40;;;;;;;97.33;37.33;;;0.40;99.90;;;;;;4899057;29;20039;-69
2023/01/26 00:43:06;;;;;;;93.57;34.87;;;0.30;99.90;;;;;;4897701;29;21283;-69
2023/01/26 00:45:33;;;;;;;95.83;35.37;;;0.40;99.90;;;;;;4893316;29;20035;-69
2023/01/26 00:48:00;;;;;;;108.10;40.10;;;0.30;99.90;;;;;;4896803;29;20032;-69
2023/01/26 00:50:26;;;;;;;106.07;39.87;;;0.40;99.90;;;;;;4898538;29;20078;-70
2023/01/26 00:52:53;;;;;;;108.53;39.30;;;0.40;99.90;;;;;;4883794;29;20047;-70
2023/01/26 00:55:19;;;;;;;112.77;39.47;;;0.40;99.90;;;;;;4913766;29;20036;-69
2023/01/26 00:57:46;;;;;;;95.30;34.40;;;0.40;99.90;;;;;;4897423;29;20408;-71
2023/01/26 01:00:15;;;;;;;104.67;38.53;;;0.40;99.90;;;;;;4915018;29;20686;-69
2023/01/26 01:02:43;;;;;;;85.00;31.13;;;0.40;99.90;;;;;;4888631;29;20051;-68
2023/01/26 01:05:11;;;;;;;98.73;36.17;;;0.40;99.90;;;;;;4877174;29;20032;-69
2023/01/26 01:07:37;;;;;;;119.17;41.17;;;0.40;99.90;;;;;;4895607;29;20912;-69
2023/01/26 01:10:04;;;;;;;114.20;41.37;;;0.40;99.90;;;;;;4914746;29;20044;-70
2023/01/26 01:12:32;;;;;;;97.57;37.97;;;0.40;99.90;;;;;;4875159;29;20044;-70
2023/01/26 01:14:58;;;;;;;99.13;35.37;;;0.40;99.90;;;;;;4892019;29;20036;-70
2023/01/26 01:17:25;;;;;;;99.63;36.13;;;0.40;99.90;;;;;;4881812;29;20043;-69
2023/01/26 01:19:51;;;;;;;92.73;34.30;;;0.40;99.90;;;;;;4896202;29;20051;-68
2023/01/26 01:22:21;;;;;;;99.23;35.40;;;0.40;99.90;;;;;;4893627;29;20036;-70
2023/01/26 01:24:47;;;;;;;83.70;33.53;;;0.40;99.90;;;;;;4911284;29;20402;-69
2023/01/26 01:27:13;;;;;;;99.60;38.13;;;0.40;99.90;;;;;;4918570;29;20423;-68
2023/01/26 01:29:40;;;;;;;96.27;33.57;;;0.40;99.90;;;;;;4895375;29;20035;-69
2023/01/26 01:32:06;;;;;;;98.40;37.30;;;0.40;99.90;;;;;;4891640;29;20040;-68
2023/01/26 01:34:32;;;;;;;86.53;33.30;;;0.40;99.90;;;;;;4890028;29;20036;-69
2023/01/26 01:36:58;;;;;;;101.57;35.37;;;0.40;99.90;;;;;;4896309;29;21058;-69
2023/01/26 01:39:25;;;;;;;88.63;33.70;;;0.40;99.90;;;;;;4902958;29;20036;-69
2023/01/26 01:41:51;;;;;;;71.73;27.10;;;0.40;99.90;;;;;;4895959;29;20046;-69
2023/01/26 01:44:20;;;;;;;80.43;28.80;;;0.40;99.90;;;;;;4895283;29;20032;-68
2023/01/26 01:47:01;;;;;;;67.47;26.93;;;0.40;99.90;;;;;;4896420;29;20052;-69
2023/01/26 01:49:46;;;;;;;70.17;28.00;;;0.50;99.90;;;;;;4896779;29;20033;-69
2023/01/26 01:52:16;;;;;;;65.40;25.67;;;0.50;99.90;;;;;;4896738;29;20507;-70
2023/01/26 01:54:49;;;;;;;72.87;26.87;;;0.50;99.90;;;;;;4895776;29;20040;-68
2023/01/26 01:57:28;;;;;;;77.90;31.17;;;0.50;99.90;;;;;;4893860;29;20601;-68
2023/01/26 02:00:04;;;;;;;72.63;28.40;;;0.60;99.90;;;;;;4879831;29;20732;-70
2023/01/26 02:02:43;;;;;;;86.50;31.73;;;0.60;99.90;;;;;;4914838;29;20047;-68
2023/01/26 02:05:31;;;;;;;81.27;29.43;;;0.60;99.90;;;;;;4890035;29;20035;-68
2023/01/26 02:07:57;;;;;;;76.93;30.57;;;0.60;99.90;;;;;;4898694;29;20040;-69
2023/01/26 02:10:24;;;;;;;65.63;26.67;;;0.60;99.90;;;;;;4882123;29;20060;-68
2023/01/26 02:12:59;;;;;;;76.30;29.77;;;0.60;99.90;;;;;;4896470;29;20040;-68
2023/01/26 02:15:26;;;;;;;63.00;24.50;;;0.60;99.90;;;;;;4915565;29;20043;-68
2023/01/26 02:17:53;;;;;;;71.00;29.03;;;0.60;99.90;;;;;;4907943;29;20039;-69
2023/01/26 02:20:31;;;;;;;66.37;25.73;;;0.60;99.90;;;;;;4894146;29;20051;-69
2023/01/26 02:23:09;;;;;;;78.50;29.67;;;0.60;99.90;;;;;;4905144;29;20434;-68
2023/01/26 02:25:56;;;;;;;66.47;26.63;;;0.60;99.90;;;;;;4897639;29;20051;-69
2023/01/26 02:28:25;;;;;;;67.57;26.87;;;0.70;99.90;;;;;;4910110;29;20035;-68
2023/01/26 02:30:54;;;;;;;73.93;28.83;;;0.60;99.90;;;;;;4920152;29;20047;-68
2023/01/26 02:33:26;;;;;;;74.63;28.70;;;0.60;99.90;;;;;;4879365;29;20074;-69
2023/01/26 02:35:56;;;;;;;67.30;26.10;;;0.60;99.90;;;;;;4900649;29;20068;-69
2023/01/26 02:38:25;;;;;;;69.33;27.70;;;0.60;99.90;;;;;;4902798;29;20428;-69
2023/01/26 02:41:00;;;;;;;63.67;25.00;;;0.60;99.90;;;;;;4883594;29;20744;-68
2023/01/26 02:43:27;;;;;;;72.60;27.80;;;0.60;99.90;;;;;;4897657;29;20055;-69
2023/01/26 02:45:54;;;;;;;54.17;21.77;;;0.60;99.90;;;;;;4901936;29;20035;-69
2023/01/26 02:51:06;;;;;;;58.27;24.33;;;0.60;99.90;;;;;;4883613;29;20044;-68
2023/01/26 02:53:33;;;;;;;56.60;21.53;;;0.60;99.90;;;;;;4897608;29;20047;-68
2023/01/26 02:56:00;;;;;;;65.67;24.63;;;0.60;99.90;;;;;;4899200;29;20389;-69
2023/01/26 02:58:27;;;;;;;57.33;23.23;;;0.60;99.90;;;;;;4901353;29;20032;-68
2023/01/26 03:00:54;;;;;;;63.83;24.40;;;0.60;99.90;;;;;;4898308;29;20059;-70
2023/01/26 03:03:24;;;;;;;64.93;24.97;;;0.60;99.90;;;;;;4894344;29;21112;-70
2023/01/26 03:05:51;;;;;;;64.33;25.00;;;0.70;99.90;;;;;;4899414;29;20043;-68
2023/01/26 03:08:17;;;;;;;69.77;27.70;;;0.70;99.90;;;;;;4903837;29;20039;-68
2023/01/26 03:10:46;;;;;;;61.30;24.97;;;0.70;99.90;;;;;;4908853;29;20036;-70
2023/01/26 03:13:12;;;;;;;54.47;21.77;;;0.70;99.90;;;;;;4894599;29;20059;-69
2023/01/26 03:15:41;;;;;;;54.27;21.50;;;0.70;99.90;;;;;;4880196;29;20055;-69
2023/01/26 03:29:18;;;;;;;59.13;21.90;;;0.70;99.90;;;;;;4908211;29;20483;-68
2023/01/26 03:31:45;;;;;;;52.37;21.50;;;0.70;99.90;;;;;;4896490;29;20067;-69
2023/01/26 03:34:11;;;;;;;50.73;20.83;;;0.70;99.90;;;;;;4903962;29;20519;-68
2023/01/26 03:36:38;;;;;;;55.57;21.73;;;0.70;99.90;;;;;;4910712;29;20048;-67
2023/01/26 03:41:06;;;;;;;49.33;18.87;;;0.70;99.90;;;;;;4896870;29;20035;-68
2023/01/26 03:58:29;;;;;;;51.70;19.70;;;0.70;99.90;;;;;;4914819;29;20036;-67
2023/01/26 04:00:56;;;;;;;40.73;16.87;;;0.70;99.90;;;;;;4897731;29;20502;-67
2023/01/26 04:08:52;;;;;;;48.23;18.83;;;0.70;99.90;;;;;;4916738;29;20036;-68
2023/01/26 04:11:19;;;;;;;38.87;15.90;;;0.70;99.90;;;;;;4894046;29;20526;-67
2023/01/26 04:22:03;;;;;;;27.50;11.47;;;0.80;99.90;;;;;;4888880;29;20048;-67
2023/01/26 04:24:31;;;;;;;31.70;13.63;;;0.80;99.90;;;;;;4888744;29;20040;-69
2023/01/26 04:26:58;;;;;;;35.60;14.70;;;0.80;99.90;;;;;;4898856;29;20516;-67
2023/01/26 04:29:29;;;;;;;31.07;12.80;;;0.80;99.90;;;;;;4907864;29;20050;-68
2023/01/26 04:31:56;;;;;;;28.83;12.67;;;0.80;99.90;;;;;;4877961;29;20050;-67
2023/01/26 04:34:22;;;;;;;30.00;13.93;;;0.80;99.90;;;;;;4897946;29;20032;-67
2023/01/26 04:36:49;;;;;;;37.23;15.80;;;0.80;99.90;;;;;;4904361;29;20138;-67
2023/01/26 04:39:17;;;;;;;31.50;13.77;;;0.80;99.90;;;;;;4907399;29;20408;-67
2023/01/26 04:41:47;;;;;;;36.23;15.50;;;0.80;99.90;;;;;;4897521;29;21076;-67
2023/01/26 04:44:15;;;;;;;37.57;16.00;;;0.80;99.90;;;;;;4889402;29;20032;-67
2023/01/26 04:46:43;;;;;;;34.27;14.60;;;0.80;99.90;;;;;;4909723;29;20039;-67
2023/01/26 04:49:12;;;;;;;37.50;14.97;;;0.90;99.90;;;;;;4899115;29;20028;-67
2023/01/26 04:51:39;;;;;;;33.30;14.90;;;0.90;99.90;;;;;;4910802;29;20055;-67
2023/01/26 04:54:05;;;;;;;32.70;14.60;;;0.90;99.90;;;;;;4906197;29;20048;-67
2023/01/26 04:56:35;;;;;;;34.40;14.40;;;0.90;99.90;;;;;;4893983;29;20059;-67
2023/01/26 04:59:05;;;;;;;35.83;14.80;;;0.90;99.90;;;;;;4882255;29;20043;-67
2023/01/26 05:01:33;;;;;;;36.37;15.63;;;0.90;99.90;;;;;;4894316;29;20500;-67
2023/01/26 05:04:00;;;;;;;40.07;16.07;;;0.90;99.90;;;;;;4865013;29;20036;-67
2023/01/26 05:06:29;;;;;;;40.23;17.90;;;0.90;99.90;;;;;;4897869;29;20036;-67
2023/01/26 05:08:55;;;;;;;42.97;16.43;;;0.90;99.90;;;;;;4883153;29;20646;-68
2023/01/26 05:11:23;;;;;;;31.77;12.43;;;0.90;99.90;;;;;;4896946;29;20051;-68
2023/01/26 05:14:03;;;;;;;31.77;13.83;;;1.00;99.90;;;;;;4893985;29;20044;-67
2023/01/26 05:16:55;;;;;;;33.80;14.77;;;1.00;99.90;;;;;;4902200;29;20060;-67
2023/01/26 05:19:40;;;;;;;31.40;13.77;;;1.00;99.90;;;;;;4883095;29;20620;-69
2023/01/26 05:22:12;;;;;;;28.73;12.30;;;1.00;99.90;;;;;;4895680;29;20044;-68
2023/01/26 05:24:42;;;;;;;30.60;12.70;;;1.00;99.90;;;;;;4888931;29;20039;-68
2023/01/26 05:27:31;;;;;;;36.73;16.17;;;1.00;99.90;;;;;;4901328;29;20068;-69
2023/01/26 05:29:59;;;;;;;29.90;12.57;;;1.00;99.90;;;;;;4908024;29;20408;-67
2023/01/26 05:32:27;;;;;;;25.73;11.37;;;1.00;99.90;;;;;;4896552;29;20423;-68
2023/01/26 05:34:55;;;;;;;37.87;16.57;;;1.00;99.90;;;;;;4894489;29;20508;-67
2023/01/26 05:37:24;;;;;;;32.30;14.10;;;1.00;99.90;;;;;;4900307;29;20058;-68
2023/01/26 05:39:51;;;;;;;27.17;13.53;;;1.00;99.90;;;;;;4900385;29;20035;-68
2023/01/26 05:42:19;;;;;;;27.87;13.17;;;1.00;99.90;;;;;;4891473;29;20364;-67
2023/01/26 05:45:24;;;;;;;34.13;14.47;;;1.00;99.90;;;;;;4848148;29;20041;-67
2023/01/26 05:47:53;;;;;;;33.63;15.17;;;1.10;99.90;;;;;;4846139;29;20057;-67
2023/01/26 05:50:19;;;;;;;32.63;13.83;;;1.10;99.90;;;;;;4858573;29;20055;-67
2023/01/26 05:53:06;;;;;;;27.90;13.20;;;1.10;99.90;;;;;;4910121;29;20409;-68
2023/01/26 05:55:34;;;;;;;33.30;14.73;;;1.10;99.90;;;;;;4905222;29;20039;-67
2023/01/26 05:58:00;;;;;;;27.67;12.90;;;1.10;99.90;;;;;;4877749;29;20523;-68
2023/01/26 06:00:27;;;;;;;23.43;11.00;;;1.10;99.90;;;;;;4904560;29;20051;-67
2023/01/26 06:03:01;;;;;;;31.93;14.43;;;1.10;99.90;;;;;;4896821;29;20039;-68
2023/01/26 06:05:28;;;;;;;28.33;13.73;;;1.10;99.90;;;;;;4898629;29;20045;-68
2023/01/26 06:07:55;;;;;;;28.67;13.60;;;1.10;99.90;;;;;;4903631;29;20040;-68
2023/01/26 06:10:26;;;;;;;31.43;13.93;;;1.10;99.90;;;;;;4899961;29;20036;-68
2023/01/26 06:13:00;;;;;;;27.50;11.93;;;1.10;99.90;;;;;;4898069;29;20054;-67
2023/01/26 06:15:46;;;;;;;32.60;13.40;;;1.10;99.90;;;;;;4900974;29;20036;-67
2023/01/26 06:18:13;;;;;;;24.30;11.10;;;1.20;99.90;;;;;;4883473;29;20043;-67
2023/01/26 06:20:46;;;;;;;27.00;12.47;;;1.20;99.90;;;;;;4907034;29;20063;-67
2023/01/26 06:23:14;;;;;;;23.27;11.13;;;1.20;99.90;;;;;;4898818;29;20032;-67
2023/01/26 06:25:40;;;;;;;26.40;12.07;;;1.20;99.90;;;;;;4894118;29;20043;-67
2023/01/26 06:28:07;;;;;;;26.70;12.23;;;1.20;99.90;;;;;;4901873;29;20040;-68
2023/01/26 06:30:33;;;;;;;28.03;12.60;;;1.30;99.90;;;;;;4902237;29;20039;-67
2023/01/26 06:33:05;;;;;;;26.77;12.63;;;1.30;99.90;;;;;;4898848;29;20044;-67
2023/01/26 06:35:35;;;;;;;27.00;11.37;;;1.30;99.90;;;;;;4899160;29;20048;-68
2023/01/26 06:38:03;;;;;;;31.03;12.57;;;1.30;99.90;;;;;;4896729;29;20424;-68
2023/01/26 06:40:29;;;;;;;27.20;13.57;;;1.30;99.90;;;;;;4887162;29;20051;-67
2023/01/26 06:42:55;;;;;;;32.60;14.97;;;1.30;99.90;;;;;;4915296;29;20040;-68
2023/01/26 06:45:22;;;;;;;37.47;16.23;;;1.30;99.90;;;;;;4897913;29;20043;-67
2023/01/26 06:47:51;;;;;;;31.90;14.47;;;1.30;99.90;;;;;;4903101;29;20518;-68
2023/01/26 06:50:22;;;;;;;27.17;12.67;;;1.30;99.90;;;;;;4898963;29;20484;-68
2023/01/26 06:52:57;;;;;;;28.67;13.97;;;1.30;99.90;;;;;;4898527;29;20059;-68
2023/01/26 06:55:46;;;;;;;26.70;12.60;;;1.30;99.90;;;;;;4911953;29;20040;-68
2023/01/26 06:58:33;;;;;;;26.33;12.47;;;1.30;99.90;;;;;;4900545;29;20447;-68
2023/01/26 07:01:00;;;;;;;30.10;13.17;;;1.30;99.90;;;;;;4907282;29;20032;-68
2023/01/26 07:03:32;;;;;;;;;;;1.30;99.90;;;;;;4907681;29;20504;-67
2023/01/26 07:05:58;;;;;;;29.17;13.03;;;1.30;99.90;;;;;;4915102;29;19914;-68
2023/01/26 07:08:25;;;;;;;38.97;16.47;;;1.30;99.90;;;;;;4916320;29;20035;-68
2023/01/26 07:10:51;;;;;;;34.57;14.30;;;1.30;99.90;;;;;;4892150;29;20039;-67
2023/01/26 07:13:17;;;;;;;35.77;15.47;;;1.30;99.90;;;;;;4895478;29;20044;-68
2023/01/26 07:15:44;;;;;;;28.43;13.53;;;1.30;99.90;;;;;;4883454;29;20059;-68
2023/01/26 07:18:10;;;;;;;29.30;12.93;;;1.30;99.90;;;;;;4917814;29;20043;-67
2023/01/26 07:20:36;;;;;;;32.60;14.07;;;1.30;99.90;;;;;;4917497;29;20051;-68
2023/01/26 07:23:03;;;;;;;32.73;14.27;;;1.40;99.90;;;;;;4912511;29;20039;-67
2023/01/26 07:25:29;;;;;;;27.30;12.03;;;1.40;99.90;;;;;;4912564;29;20051;-68
2023/01/26 07:27:57;;;;;;;30.07;13.83;;;1.40;99.90;;;;;;4882927;29;20036;-69
2023/01/26 07:30:24;;;;;;;23.37;12.00;;;1.40;99.90;;;;;;4899454;29;20040;-68
2023/01/26 07:32:51;;;;;;;27.97;12.37;;;1.40;99.90;;;;;;4910418;29;20036;-68
2023/01/26 07:35:17;;;;;;;24.70;10.80;;;1.40;99.90;;;;;;4911342;29;20052;-68
2023/01/26 07:37:43;;;;;;;22.77;10.93;;;1.40;99.90;;;;;;4915534;29;20977;-68
2023/01/26 07:40:10;;;;;;;23.50;11.20;;;1.40;99.90;;;;;;4885257;29;20039;-68
2023/01/26 07:42:36;;;;;;;22.07;10.37;;;1.40;99.90;;;;;;4895814;29;20546;-68
2023/01/26 07:45:07;;;;;;;24.63;10.80;;;1.40;99.90;;;;;;4890097;29;20044;-68
2023/01/26 07:47:34;;;;;;;25.47;11.27;;;1.50;99.90;;;;;;4901137;29;20040;-68
2023/01/26 07:50:01;;;;;;;26.97;12.37;;;1.50;99.90;;;;;;4875625;29;20052;-68
2023/01/26 07:52:27;;;;;;;24.93;11.70;;;1.50;99.90;;;;;;4892214;29;20047;-68
2023/01/26 07:54:53;;;;;;;30.73;12.20;;;1.50;99.90;;;;;;4905418;29;20058;-68
2023/01/26 07:57:19;;;;;;;28.50;13.47;;;1.50;99.90;;;;;;4878438;29;20506;-68
2023/01/26 07:59:46;;;;;;;29.10;12.37;;;1.60;99.90;;;;;;4917656;29;20036;-67
2023/01/26 08:02:12;;;;;;;32.33;13.80;;;1.50;99.90;;;;;;4896407;29;20483;-68
2023/01/26 08:04:38;;;;;;;30.17;13.63;;;1.60;99.90;;;;;;4876401;29;20059;-67
2023/01/26 08:07:05;;;;;;;41.57;16.63;;;1.60;99.90;;;;;;4901234;29;20389;-68
2023/01/26 08:09:31;;;;;;;40.60;16.67;;;1.60;99.90;;;;;;4898772;29;20027;-69
2023/01/26 08:11:58;;;;;;;36.67;15.73;;;1.60;99.90;;;;;;4908478;29;20055;-68
2023/01/26 08:14:24;;;;;;;31.47;13.77;;;1.60;99.90;;;;;;4903528;29;20040;-68
2023/01/26 08:16:50;;;;;;;41.07;17.00;;;1.60;99.90;;;;;;4880511;29;20087;-68
2023/01/26 08:19:20;;;;;;;51.57;22.13;;;1.60;99.90;;;;;;4911050;29;20400;-69
2023/01/26 08:21:46;;;;;;;43.30;17.80;;;1.60;99.90;;;;;;4905875;29;20420;-68
2023/01/26 08:24:12;;;;;;;38.23;16.03;;;1.60;99.90;;;;;;4869751;29;20063;-68
2023/01/26 08:26:38;;;;;;;33.13;14.47;;;1.60;99.90;;;;;;4903129;29;20031;-70
2023/01/26 08:29:05;;;;;;;39.27;16.73;;;1.60;99.90;;;;;;4883496;29;20043;-68
2023/01/26 08:31:32;;;;;;;45.07;16.57;;;1.60;99.90;;;;;;4905030;29;20048;-69
2023/01/26 08:33:58;;;;;;;53.17;21.00;;;1.60;99.90;;;;;;4892896;29;20897;-68
2023/01/26 08:36:25;;;;;;;55.10;20.70;;;1.70;99.90;;;;;;4906889;29;20070;-69
2023/01/26 08:38:52;;;;;;;39.60;16.77;;;1.70;99.90;;;;;;4886756;29;20036;-69
2023/01/26 08:41:19;;;;;;;38.83;17.10;;;1.70;99.90;;;;;;4895164;29;20075;-69
2023/01/26 08:43:45;;;;;;;45.13;18.27;;;1.70;99.90;;;;;;4876425;29;20423;-68
2023/01/26 08:46:11;;;;;;;56.47;20.77;;;1.80;99.90;;;;;;4884145;29;20412;-67
2023/01/26 08:48:38;;;;;;;47.63;19.47;;;1.80;99.90;;;;;;4892685;29;20039;-68
2023/01/26 08:51:06;;;;;;;41.03;15.90;;;1.90;99.90;;;;;;4891204;29;20499;-68
2023/01/26 08:53:34;;;;;;;52.20;19.33;;;1.90;99.90;;;;;;4904714;29;20047;-68
2023/01/26 08:56:02;;;;;;;48.70;18.47;;;1.90;99.90;;;;;;4904330;29;20064;-68
2023/01/26 08:58:28;;;;;;;56.07;19.27;;;1.90;99.90;;;;;;4892852;29;20106;-67
2023/01/26 09:00:54;;;;;;;47.23;18.37;;;2.00;99.90;;;;;;4893738;29;20039;-68
2023/01/26 09:03:21;;;;;;;51.47;17.40;;;2.00;99.90;;;;;;4886732;29;20586;-67
2023/01/26 09:05:47;;;;;;;54.43;20.03;;;2.10;99.90;;;;;;4893975;29;20388;-67
2023/01/26 09:08:13;;;;;;;59.30;23.43;;;2.10;99.90;;;;;;4878853;29;20043;-69
2023/01/26 09:10:41;;;;;;;56.13;21.67;;;2.10;99.90;;;;;;4892205;29;20040;-68
2023/01/26 09:13:08;;;;;;;58.93;19.27;;;2.10;99.90;;;;;;4890449;29;20070;-68
2023/01/26 09:15:36;;;;;;;86.80;24.97;;;2.10;99.90;;;;;;4889092;29;20036;-68
2023/01/26 09:18:03;;;;;;;60.70;22.00;;;2.10;99.90;;;;;;4912842;29;20534;-68
2023/01/26 09:20:29;;;;;;;51.60;18.77;;;2.20;99.90;;;;;;4878157;29;20044;-68
2023/01/26 09:22:56;;;;;;;55.33;20.10;;;2.20;99.90;;;;;;4893710;29;20703;-67
2023/01/26 09:25:22;;;;;;;56.07;19.83;;;2.20;99.90;;;;;;4899718;29;20083;-68
2023/01/26 09:27:48;;;;;;;49.60;17.60;;;2.20;99.90;;;;;;4892083;29;20543;-68
2023/01/26 09:30:15;;;;;;;52.73;19.53;;;2.20;99.90;;;;;;4894668;29;20067;-68
2023/01/26 09:32:41;;;;;;;69.17;23.20;;;2.20;99.90;;;;;;4890415;29;20036;-68
2023/01/26 09:35:10;;;;;;;65.43;23.57;;;2.20;99.90;;;;;;4889208;29;20040;-68
2023/01/26 09:37:37;;;;;;;89.97;22.33;;;2.20;99.90;;;;;;4915898;29;20044;-68
2023/01/26 09:40:05;;;;;;;60.53;21.57;;;2.20;99.90;;;;;;4912792;29;20060;-68
2023/01/26 09:42:46;;;;;;;60.37;21.63;;;2.30;99.90;;;;;;4910670;29;20613;-68
2023/01/26 09:45:12;;;;;;;55.03;19.00;;;2.30;99.90;;;;;;4907609;29;20039;-68
2023/01/26 09:47:53;;;;;;;62.33;19.97;;;2.40;99.90;;;;;;4896732;29;20043;-68
2023/01/26 09:50:58;;;;;;;66.97;21.60;;;2.40;99.90;;;;;;4914496;29;20038;-68
2023/01/26 09:53:46;;;;;;;57.97;19.37;;;2.50;99.90;;;;;;4912706;29;20055;-68
2023/01/26 09:56:29;;;;;;;68.73;21.27;;;2.50;99.90;;;;;;4904557;29;20031;-68
2023/01/26 09:59:30;;;;;;;72.60;22.43;;;2.60;99.90;;;;;;4896177;29;20036;-69
2023/01/26 10:02:12;;;;;;;70.67;22.27;;;2.60;99.90;;;;;;4909656;29;20047;-69
2023/01/26 10:04:43;;;;;;;57.80;21.43;;;2.60;99.90;;;;;;4904365;29;20049;-68
2023/01/26 10:07:11;;;;;;;53.80;20.87;;;2.60;99.90;;;;;;4879425;29;20047;-68
2023/01/26 10:09:52;;;;;;;88.22;33.47;;;2.70;99.90;;;;;;4895403;29;20403;-69
2023/01/26 10:12:26;;;;;;;64.67;23.57;;;2.80;99.90;;;;;;4900516;29;20309;-68
2023/01/26 10:15:07;;;;;;;57.13;21.90;;;2.90;99.90;;;;;;4892342;29;20407;-68
2023/01/26 10:17:40;;;;;;;62.95;21.17;;;3.00;99.90;;;;;;4914282;29;20035;-68
2023/01/26 10:20:25;;;;;;;;;;;3.10;99.90;;;;;;4878740;29;20558;-68
2023/01/26 10:22:54;;;;;;;46.83;18.87;;;3.20;99.90;;;;;;4892950;29;19937;-68
2023/01/26 10:25:33;;;;;;;63.07;20.90;;;3.20;99.90;;;;;;4911603;29;20523;-69
2023/01/26 10:28:10;;;;;;;64.07;19.30;;;3.10;99.90;;;;;;4894923;29;20051;-70
2023/01/26 10:30:39;;;;;;;50.10;20.37;;;3.20;99.90;;;;;;4878183;29;20044;-68
2023/01/26 10:33:32;;;;;;;66.28;22.20;;;3.30;99.90;;;;;;4891483;29;20048;-68
2023/01/26 10:36:03;;;;;;;48.42;19.08;;;3.40;99.90;;;;;;4912736;29;20070;-68
2023/01/26 10:38:32;;;;;;;102.38;22.90;;;3.50;99.90;;;;;;4918233;29;20031;-68
2023/01/26 10:41:20;;;;;;;42.78;17.23;;;3.60;99.90;;;;;;4882894;29;20047;-68
2023/01/26 10:43:58;;;;;;;49.78;16.45;;;3.80;99.90;;;;;;4873714;29;20040;-69
2023/01/26 10:46:35;;;;;;;38.65;15.35;;;3.90;99.90;;;;;;4897129;29;20044;-71
2023/01/26 10:49:15;;;;;;;35.50;15.32;;;4.10;99.90;;;;;;4882795;29;20054;-69
2023/01/26 10:52:03;;;;;;;25.90;12.45;;;4.20;99.90;;;;;;4910229;29;20040;-68
2023/01/26 10:54:32;;;;;;;33.25;15.43;;;4.40;99.90;;;;;;4906939;29;20055;-69
2023/01/26 10:57:09;;;;;;;31.30;15.55;;;4.50;99.90;;;;;;4898947;29;20035;-69
2023/01/26 10:59:42;;;;;;;35.00;18.08;;;4.60;99.90;;;;;;4880244;29;20044;-68
2023/01/26 11:02:14;;;;;;;51.80;15.82;;;4.70;99.90;;;;;;4905521;29;20287;-69
2023/01/26 11:04:59;;;;;;;28.55;14.38;;;4.70;99.90;;;;;;4906038;29;20043;-68
2023/01/26 11:07:30;;;;;;;24.20;12.50;;;4.60;99.90;;;;;;4895066;29;20527;-70
2023/01/26 11:10:14;;;;;;;23.67;11.88;;;4.60;99.90;;;;;;4892442;29;20044;-68
2023/01/26 11:12:41;;;;;;;28.08;13.25;;;4.50;99.90;;;;;;4893440;29;20044;-68
2023/01/26 11:15:18;;;;;;;29.35;13.43;;;4.50;99.90;;;;;;4891739;29;20052;-69
2023/01/26 11:17:59;;;;;;;29.27;12.13;;;4.40;99.90;;;;;;4880828;29;20064;-69
2023/01/26 11:20:44;;;;;;;22.00;10.50;;;4.40;99.90;;;;;;4897326;29;20047;-70
2023/01/26 11:23:22;;;;;;;24.63;10.45;;;4.30;99.90;;;;;;4893269;29;20040;-70
2023/01/26 11:26:14;;;;;;;23.05;9.32;;;4.30;99.90;;;;;;4889184;29;20054;-69
2023/01/26 11:29:02;;;;;;;26.63;10.38;;;4.30;99.90;;;;;;4893120;29;20058;-69
2023/01/26 11:31:43;;;;;;;23.63;8.88;;;4.20;99.90;;;;;;4907946;29;20032;-68
2023/01/26 11:34:27;;;;;;;21.60;8.25;;;4.30;99.90;;;;;;4886453;29;20067;-70
2023/01/26 11:37:18;;;;;;;24.40;8.00;;;4.40;99.90;;;;;;4899997;29;20126;-69
2023/01/26 11:39:57;;;;;;;19.95;7.55;;;4.50;99.90;;;;;;4908034;29;20447;-68
2023/01/26 11:42:32;;;;;;;24.40;8.70;;;4.50;99.90;;;;;;4890530;29;20620;-68
2023/01/26 11:45:37;;;;;;;24.88;9.73;;;4.70;99.90;;;;;;4887853;29;20039;-69
2023/01/26 11:48:24;;;;;;;28.42;9.60;;;4.80;99.90;;;;;;4901033;29;20486;-70
2023/01/26 11:51:03;;;;;;;19.70;7.35;;;4.90;99.90;;;;;;4907478;29;20403;-68
2023/01/26 11:53:54;;;;;;;22.25;7.47;;;5.00;99.90;;;;;;4880478;29;20051;-70
2023/01/26 11:56:50;;;;;;;20.17;7.55;;;5.10;99.90;;;;;;4875745;29;20524;-68
2023/01/26 11:59:26;;;;;;;28.98;9.95;;;5.20;99.90;;;;;;4905143;29;20058;-68
2023/01/26 12:01:59;;;;;;;27.17;8.00;;;5.40;99.90;;;;;;4891952;29;20044;-70
2023/01/26 12:04:27;;;;;;;22.20;6.55;;;5.60;99.90;;;;;;4900611;29;20051;-68
2023/01/26 12:07:00;;;;;;;22.75;6.78;;;5.70;99.90;;;;;;4889454;29;20039;-69
2023/01/26 12:09:44;;;;;;;25.38;6.93;;;5.90;99.90;;;;;;4912624;29;20503;-70
2023/01/26 12:12:16;;;;;;;29.98;6.30;;;6.20;99.90;;;;;;4894086;29;20052;-70
2023/01/26 12:14:51;;;;;;;30.75;7.15;;;6.40;99.90;;;;;;4902757;29;20061;-70
2023/01/26 12:17:46;;;;;;;29.05;5.82;;;6.60;99.90;;;;;;4890758;29;20032;-71
2023/01/26 12:20:28;;;;;;;26.02;6.10;;;6.80;99.90;;;;;;4894170;29;20050;-69
2023/01/26 12:23:04;;;;;;;35.90;7.35;;;6.90;99.90;;;;;;4908925;29;20043;-69
2023/01/26 12:25:39;;;;;;;29.80;5.97;;;7.00;99.90;;;;;;4904698;29;20415;-71
2023/01/26 12:28:28;;;;;;;38.15;10.15;;;7.20;99.90;;;;;;4894112;29;20059;-69
2023/01/26 12:31:16;;;;;;;28.63;6.13;;;7.30;99.90;;;;;;4910878;29;20043;-69
2023/01/26 12:33:43;;;;;;;26.20;5.00;;;7.30;99.90;;;;;;4884095;29;20055;-71
2023/01/26 12:36:24;;;;;;;27.75;4.35;;;7.30;99.90;;;;;;4905196;29;20060;-68
2023/01/26 12:39:09;;;;;;;31.50;5.78;;;7.30;99.90;;;;;;4895394;29;20040;-69
2023/01/26 12:42:01;;;;;;;41.03;6.22;;;7.30;99.90;;;;;;4883387;29;20040;-69
2023/01/26 12:44:34;;;;;;;23.00;4.83;;;7.40;99.90;;;;;;4874740;29;20040;-69
2023/01/26 12:47:35;;;;;;;23.58;3.80;;;7.40;99.90;;;;;;4905077;29;20050;-69
2023/01/26 12:50:16;;;;;;;32.03;4.65;;;7.60;99.90;;;;;;4910909;29;20032;-70
2023/01/26 12:52:56;;;;;;;34.53;4.78;;;7.80;99.90;;;;;;4900940;29;20047;-70
2023/01/26 12:55:22;;;;;;;35.78;4.50;;;7.90;99.90;;;;;;4903788;29;20040;-71
2023/01/26 12:58:02;;;;;;;30.15;4.07;;;7.90;99.90;;;;;;4897031;29;20040;-70
2023/01/26 13:00:32;;;;;;;24.98;3.15;;;8.00;99.90;;;;;;4890636;29;20040;-70
2023/01/26 13:03:17;;;;;;;30.27;4.05;;;8.00;99.90;;;;;;4889271;29;20036;-72
2023/01/26 13:06:00;;;;;;;21.35;2.53;;;8.10;99.90;;;;;;4903555;29;20043;-70
2023/01/26 13:08:30;;;;;;;17.33;2.28;;;8.10;99.90;;;;;;4886947;29;20488;-69
2023/01/26 13:10:58;;;;;;;28.23;3.88;;;8.10;99.90;;;;;;4911317;29;20036;-70
2023/01/26 13:13:29;;;;;;;20.77;2.97;;;8.10;99.90;;;;;;4886840;29;20083;-70
2023/01/26 13:16:14;;;;;;;24.60;3.03;;;8.10;99.90;;;;;;4911052;29;20575;-70
2023/01/26 13:18:54;;;;;;;25.55;2.80;;;8.10;99.90;;;;;;4908712;29;20507;-70
2023/01/26 13:21:27;;;;;;;18.40;1.95;;;8.10;99.90;;;;;;4904432;29;20035;-70
2023/01/26 13:23:54;;;;;;;23.85;2.25;;;8.10;99.90;;;;;;4881497;29;20043;-69
2023/01/26 13:26:43;;;;;;;22.98;2.42;;;8.10;99.90;;;;;;4891993;29;20032;-70
2023/01/26 13:29:31;;;;;;;14.27;1.83;;;8.10;99.90;;;;;;4901525;29;20059;-70
2023/01/26 13:32:01;;;;;;;16.98;2.42;;;8.10;99.90;;;;;;4891101;29;20050;-70
2023/01/26 13:34:37;;;;;;;21.65;2.63;;;8.10;99.90;;;;;;4897364;29;20047;-70
2023/01/26 13:37:26;;;;;;;16.45;1.77;;;8.10;99.90;;;;;;4892320;29;20480;-69
2023/01/26 13:40:01;;;;;;;18.98;4.18;;;8.10;99.90;;;;;;4913251;29;20039;-70
2023/01/26 13:42:53;;;;;;;17.65;4.00;;;8.00;99.90;;;;;;4892466;29;20040;-72
2023/01/26 13:45:32;;;;;;;25.85;4.43;;;8.10;99.90;;;;;;4871119;29;20066;-70
2023/01/26 13:48:03;;;;;;;27.73;3.22;;;8.10;99.90;;;;;;4890452;29;20075;-70